Terminal Aerodrome Forecast
Issued by NWS

Home | Current Version | Previous Version | Text Only | Print | Product List | Glossary On
Versions: 1 2 3 4 5 6 7 8 9 10 11 12 13 14 15 16 17
124
FTUS43 KICT 071740
TAFCNU
TAF
KCNU 071740Z 0718/0818 01007KT P6SM SCT030 OVC060
     FM071830 01009KT 3SM -SN OVC028
     FM071900 36013KT 1 1/2SM -SN OVC022
      TEMPO 0719/0723 3SM -SN
     FM072300 35009KT 5SM -SN OVC025
     FM080300 33009KT P6SM SCT035=

USA.gov is the U.S. government's official web portal to all federal, state and local government web resources and services.